createdAt,value
2018-09-05T00:01:26.248Z,97355.04
2018-09-05T00:03:54.843Z,97361.77
2018-09-05T00:06:23.599Z,97362.23
2018-09-05T00:08:52.165Z,97363.89
2018-09-05T00:11:20.766Z,97357.78
2018-09-05T00:13:49.601Z,97358.56
2018-09-05T00:16:18.276Z,97363.45
2018-09-05T00:18:46.952Z,97362.37
2018-09-05T00:21:15.751Z,97363.73
2018-09-05T00:23:44.314Z,97358.48
2018-09-05T00:26:13.005Z,97364.39
2018-09-05T00:28:41.649Z,97358.77
2018-09-05T00:31:11.434Z,97357.97
2018-09-05T00:33:40.551Z,97360.62
2018-09-05T00:36:09.511Z,97358.64
2018-09-05T00:38:38.122Z,97362.32
2018-09-05T00:41:06.866Z,97358.59
2018-09-05T00:43:35.535Z,97356.77
2018-09-05T00:46:04.134Z,97355.44
2018-09-05T00:48:32.698Z,97360.32
2018-09-05T00:51:01.383Z,97357.38
2018-09-05T00:53:30.035Z,97351.66
2018-09-05T00:55:58.597Z,97349.64
2018-09-05T00:58:27.245Z,97346.82
2018-09-05T01:00:55.894Z,97348.36
2018-09-05T01:03:24.551Z,97344.17
2018-09-05T01:05:53.297Z,97351.75
2018-09-05T01:08:21.934Z,97353.73
2018-09-05T01:10:50.513Z,97355.59
2018-09-05T01:13:19.478Z,97351.07
2018-09-05T01:15:48.168Z,97353.64
2018-09-05T01:18:16.770Z,97352.91
2018-09-05T01:20:45.474Z,97355.89
2018-09-05T01:23:14.047Z,97354.16
2018-09-05T01:25:42.680Z,97356.27
2018-09-05T01:28:11.396Z,97353.61
2018-09-05T01:30:39.987Z,97354.89
2018-09-05T01:33:08.623Z,97352.27
2018-09-05T01:35:37.224Z,97356.80
2018-09-05T01:38:05.856Z,97351.44
2018-09-05T01:40:34.577Z,97351.59
2018-09-05T01:43:03.447Z,97347.73
2018-09-05T01:45:32.096Z,97344.60
2018-09-05T01:48:00.738Z,97352.92
2018-09-05T01:50:34.707Z,97355.40
2018-09-05T01:53:03.320Z,97351.00
2018-09-05T01:55:31.976Z,97346.37
2018-09-05T01:58:00.686Z,97353.94
2018-09-05T02:00:33.423Z,97352.20
2018-09-05T02:03:02.794Z,97355.02
2018-09-05T02:05:31.474Z,97352.28
2018-09-05T02:08:01.372Z,97349.84
2018-09-05T02:10:31.051Z,97345.93
2018-09-05T02:12:59.931Z,97352.88
2018-09-05T02:15:28.595Z,97353.38
2018-09-05T02:17:57.199Z,97349.72
2018-09-05T02:20:25.800Z,97351.20
2018-09-05T02:22:54.419Z,97351.84
2018-09-05T02:25:23.169Z,97343.71
2018-09-05T02:27:51.880Z,97344.27
2018-09-05T02:30:20.528Z,97344.81
2018-09-05T02:32:49.356Z,97343.53
2018-09-05T02:35:17.941Z,97349.40
2018-09-05T02:37:46.608Z,97346.27
2018-09-05T02:40:15.403Z,97350.94
2018-09-05T02:42:44.068Z,97348.57
2018-09-05T02:45:12.651Z,97347.55
2018-09-05T02:47:41.262Z,97347.17
2018-09-05T02:50:09.936Z,97348.00
2018-09-05T02:52:38.688Z,97356.63
2018-09-05T02:55:07.701Z,97348.83
2018-09-05T02:57:36.746Z,97346.98
2018-09-05T03:00:05.657Z,97351.77
2018-09-05T03:02:34.360Z,97349.73
2018-09-05T03:05:03.588Z,97346.01
2018-09-05T03:07:32.569Z,97344.20
2018-09-05T03:10:01.636Z,97349.14
2018-09-05T03:12:30.210Z,97351.33
2018-09-05T03:14:58.815Z,97350.16
2018-09-05T03:17:27.703Z,97357.28
2018-09-05T03:19:56.299Z,97349.14
2018-09-05T03:22:24.891Z,97361.23
2018-09-05T03:24:53.527Z,97362.70
2018-09-05T03:27:22.125Z,97355.10
2018-09-05T03:29:50.755Z,97360.67
2018-09-05T03:32:19.901Z,97354.58
2018-09-05T03:34:48.492Z,97355.48
2018-09-05T03:37:17.156Z,97358.16
2018-09-05T03:39:46.104Z,97353.11
2018-09-05T03:42:14.751Z,97354.13
2018-09-05T03:44:43.495Z,97353.59
2018-09-05T03:47:12.181Z,97354.69
2018-09-05T03:49:40.817Z,97357.70
2018-09-05T03:52:09.515Z,97357.81
2018-09-05T03:54:38.193Z,97361.84
2018-09-05T03:57:06.854Z,97363.20
2018-09-05T03:59:35.427Z,97363.31
2018-09-05T04:02:04.150Z,97372.91
2018-09-05T04:04:32.719Z,97369.30
2018-09-05T04:07:01.339Z,97372.88
2018-09-05T04:09:30.025Z,97369.22
2018-09-05T04:11:58.629Z,97362.10
2018-09-05T04:14:27.169Z,97370.68
2018-09-05T04:16:55.941Z,97375.90
2018-09-05T04:19:24.693Z,97373.36
2018-09-05T04:21:53.258Z,97373.97
2018-09-05T04:24:22.969Z,97374.72
2018-09-05T04:26:51.603Z,97372.63
2018-09-05T04:29:20.220Z,97371.41
2018-09-05T04:31:48.872Z,97366.56
2018-09-05T04:34:17.479Z,97371.34
2018-09-05T04:36:46.068Z,97364.95
2018-09-05T04:39:15.095Z,97369.61
2018-09-05T04:41:43.745Z,97373.07
2018-09-05T04:44:12.318Z,97362.48
2018-09-05T04:46:41.159Z,97363.12
2018-09-05T04:49:09.708Z,97367.33
2018-09-05T04:51:38.280Z,97365.67
2018-09-05T04:54:07.468Z,97370.98
2018-09-05T04:56:36.076Z,97376.45
2018-09-05T04:59:05.135Z,97383.40
2018-09-05T05:01:34.051Z,97381.02
2018-09-05T05:04:02.652Z,97384.95
2018-09-05T05:06:31.208Z,97387.22
2018-09-05T05:08:59.879Z,97385.94
2018-09-05T05:11:28.469Z,97398.55
2018-09-05T05:13:57.099Z,97395.61
2018-09-05T05:16:25.753Z,97397.55
2018-09-05T05:18:54.311Z,97397.09
2018-09-05T05:21:22.867Z,97390.80
2018-09-05T05:23:51.470Z,97393.54
2018-09-05T05:26:20.020Z,97397.92
2018-09-05T05:28:48.619Z,97404.22
2018-09-05T05:31:17.291Z,97402.19
2018-09-05T05:33:45.852Z,97407.05
2018-09-05T05:36:15.299Z,97412.79
2018-09-05T05:38:43.887Z,97408.49
2018-09-05T05:41:12.467Z,97409.58
2018-09-05T05:43:41.028Z,97414.35
2018-09-05T05:46:10.136Z,97418.72
2018-09-05T05:48:39.115Z,97418.11
2018-09-05T05:51:08.052Z,97426.34
2018-09-05T05:53:36.756Z,97422.52
2018-09-05T05:56:05.332Z,97420.05
2018-09-05T05:58:33.887Z,97417.27
2018-09-05T06:01:02.845Z,97418.58
2018-09-05T06:03:31.351Z,97417.54
2018-09-05T06:05:59.992Z,97416.11
2018-09-05T06:08:28.547Z,97426.33
2018-09-05T06:10:57.087Z,97416.85
2018-09-05T06:13:25.640Z,97423.09
2018-09-05T06:15:59.131Z,97419.98
2018-09-05T06:18:33.772Z,97421.99
2018-09-05T06:21:06.662Z,97427.59
2018-09-05T06:23:38.710Z,97424.45
2018-09-05T06:26:10.628Z,97424.57
2018-09-05T06:28:39.352Z,97418.84
2018-09-05T06:31:08.024Z,97418.70
2018-09-05T06:33:36.571Z,97420.88
2018-09-05T06:36:08.740Z,97424.69
2018-09-05T06:38:40.230Z,97422.23
2018-09-05T06:41:08.780Z,97422.34
2018-09-05T06:43:38.728Z,97423.84
2018-09-05T06:46:09.119Z,97418.77
2018-09-05T06:48:40.295Z,97424.80
2018-09-05T06:51:10.440Z,97420.02
2018-09-05T06:53:42.477Z,97423.17
2018-09-05T06:56:11.970Z,97419.03
2018-09-05T06:58:42.291Z,97420.90
2018-09-05T07:01:11.748Z,97423.86
2018-09-05T07:03:41.743Z,97425.11
2018-09-05T07:06:12.987Z,97424.02
2018-09-05T07:08:43.688Z,97420.88
2018-09-05T07:11:14.648Z,97422.22
2018-09-05T07:13:44.899Z,97423.84
2018-09-05T07:16:13.564Z,97425.69
2018-09-05T07:18:42.364Z,97423.05
2018-09-05T07:21:11.053Z,97425.69
2018-09-05T07:23:39.579Z,97431.31
2018-09-05T07:26:08.283Z,97425.19
2018-09-05T07:28:36.844Z,97429.42
2018-09-05T07:31:05.436Z,97432.28
2018-09-05T07:33:34.197Z,97431.19
2018-09-05T07:36:02.796Z,97433.95
2018-09-05T07:38:31.493Z,97439.87
2018-09-05T07:41:00.339Z,97440.31
2018-09-05T07:43:28.910Z,97442.34
2018-09-05T07:45:57.455Z,97433.65
2018-09-05T07:48:26.104Z,97434.72
2018-09-05T07:50:54.725Z,97438.50
2018-09-05T07:53:23.276Z,97437.88
2018-09-05T07:55:51.888Z,97437.70
2018-09-05T07:58:20.463Z,97436.42
2018-09-05T08:00:49.023Z,97437.94
2018-09-05T08:03:17.616Z,97435.86
2018-09-05T08:05:46.168Z,97439.16
2018-09-05T08:08:14.716Z,97440.30
2018-09-05T08:10:43.383Z,97437.14
2018-09-05T08:13:11.963Z,97428.05
2018-09-05T08:15:40.520Z,97433.80
2018-09-05T08:18:09.254Z,97433.55
2018-09-05T08:20:37.791Z,97437.25
2018-09-05T08:23:06.695Z,97429.42
2018-09-05T08:25:35.655Z,97425.75
2018-09-05T08:28:04.352Z,97427.39
2018-09-05T08:30:32.923Z,97436.16
2018-09-05T08:33:01.512Z,97432.11
2018-09-05T08:35:30.336Z,97432.75
2018-09-05T08:37:58.921Z,97428.36
2018-09-05T08:40:27.436Z,97427.38
2018-09-05T08:42:55.975Z,97431.74
2018-09-05T08:45:24.872Z,97430.73
2018-09-05T08:47:53.337Z,97428.53
2018-09-05T08:50:21.835Z,97432.77
2018-09-05T08:52:50.494Z,97433.72
2018-09-05T08:55:19.185Z,97435.02
2018-09-05T08:57:47.760Z,97434.56
2018-09-05T09:00:16.311Z,97424.84
2018-09-05T09:02:44.975Z,97428.28
2018-09-05T09:05:13.536Z,97426.48
2018-09-05T09:07:42.168Z,97430.80
2018-09-05T09:10:10.959Z,97423.83
2018-09-05T09:12:39.596Z,97429.06
2018-09-05T09:15:08.180Z,97418.81
2018-09-05T09:17:36.834Z,97429.97
2018-09-05T09:20:05.423Z,97424.64
2018-09-05T09:22:34.083Z,97417.93
2018-09-05T09:25:02.663Z,97418.89
2018-09-05T09:27:32.319Z,97419.56
2018-09-05T09:30:01.467Z,97416.33
2018-09-05T09:32:30.152Z,97414.84
2018-09-05T09:34:58.749Z,97412.21
2018-09-05T09:37:27.315Z,97404.34
2018-09-05T09:39:56.354Z,97405.26
2018-09-05T09:42:24.923Z,97410.96
2018-09-05T09:44:53.487Z,97401.71
2018-09-05T09:47:22.076Z,97399.45
2018-09-05T09:49:50.648Z,97395.19
2018-09-05T09:52:21.407Z,97397.10
2018-09-05T09:54:51.517Z,97393.02
2018-09-05T09:57:20.142Z,97392.71
2018-09-05T09:59:48.743Z,97391.92
2018-09-05T10:02:22.616Z,97390.94
2018-09-05T10:04:56.580Z,97392.03
2018-09-05T10:08:33.119Z,97386.78
2018-09-05T10:11:05.879Z,97388.01
2018-09-05T10:13:39.915Z,97378.34
2018-09-05T10:16:13.584Z,97379.39
2018-09-05T10:18:44.735Z,97374.09
2018-09-05T10:21:13.324Z,97375.27
2018-09-05T10:23:41.900Z,97369.41
2018-09-05T10:26:10.464Z,97369.81
2018-09-05T10:28:39.156Z,97369.90
2018-09-05T10:31:07.724Z,97368.86
2018-09-05T10:33:36.295Z,97357.41
2018-09-05T10:36:05.247Z,97364.11
2018-09-05T10:38:33.793Z,97361.09
2018-09-05T10:41:02.432Z,97367.56
2018-09-05T10:43:31.108Z,97361.78
2018-09-05T10:45:59.731Z,97352.48
2018-09-05T10:48:28.425Z,97357.94
2018-09-05T10:50:57.103Z,97352.06
2018-09-05T10:53:25.648Z,97354.34
2018-09-05T10:55:54.247Z,97349.89
2018-09-05T10:58:22.821Z,97350.47
2018-09-05T11:00:51.376Z,97347.50
2018-09-05T11:03:19.933Z,97339.84
2018-09-05T11:05:48.616Z,97340.83
2018-09-05T11:08:17.167Z,97338.48
2018-09-05T11:10:45.784Z,97338.53
2018-09-05T11:13:14.323Z,97338.33
2018-09-05T11:15:45.744Z,97332.20
2018-09-05T11:18:14.323Z,97330.58
2018-09-05T11:20:42.912Z,97328.06
2018-09-05T11:23:11.479Z,97324.09
2018-09-05T11:25:40.147Z,97332.94
2018-09-05T11:28:08.700Z,97326.36
2018-09-05T11:30:37.318Z,97330.75
2018-09-05T11:33:05.952Z,97331.21
2018-09-05T11:35:34.497Z,97326.92
2018-09-05T11:38:03.062Z,97322.48
2018-09-05T11:40:31.711Z,97325.45
2018-09-05T11:43:00.417Z,97318.83
2018-09-05T11:45:28.971Z,97313.52
2018-09-05T11:47:57.572Z,97313.11
2018-09-05T11:50:26.139Z,97317.84
2018-09-05T11:52:54.700Z,97320.61
2018-09-05T11:55:23.479Z,97312.46
2018-09-05T11:57:52.040Z,97312.72
2018-09-05T12:00:20.619Z,97308.27
2018-09-05T12:02:49.581Z,97305.67
2018-09-05T12:05:18.147Z,97310.26
2018-09-05T12:07:46.697Z,97301.88
2018-09-05T12:10:15.371Z,97311.63
2018-09-05T12:12:43.930Z,97304.02
2018-09-05T12:15:12.507Z,97299.74
2018-09-05T12:17:41.599Z,97296.34
2018-09-05T12:20:10.164Z,97298.16
2018-09-05T12:22:38.719Z,97296.03
2018-09-05T12:25:07.519Z,97288.42
2018-09-05T12:27:36.097Z,97283.46
2018-09-05T12:30:04.699Z,97279.83
2018-09-05T12:32:33.283Z,97283.83
2018-09-05T12:35:01.844Z,97277.22
2018-09-05T12:37:30.400Z,97275.12
2018-09-05T12:39:58.991Z,97283.22
2018-09-05T12:42:27.540Z,97269.58
2018-09-05T12:44:56.088Z,97274.05
2018-09-05T12:47:24.663Z,97274.02
2018-09-05T12:49:53.203Z,97262.33
2018-09-05T12:52:21.758Z,97264.42
2018-09-05T12:54:50.751Z,97269.54
2018-09-05T12:57:19.362Z,97266.63
2018-09-05T12:59:47.907Z,97261.77
2018-09-05T13:02:16.588Z,97253.08
2018-09-05T13:04:45.183Z,97251.11
2018-09-05T13:07:13.935Z,97252.70
2018-09-05T13:09:42.891Z,97247.88
2018-09-05T13:12:11.495Z,97245.26
2018-09-05T13:14:40.047Z,97248.45
2018-09-05T13:17:08.723Z,97242.17
2018-09-05T13:20:05.036Z,97244.09
2018-09-05T13:22:34.103Z,97235.31
2018-09-05T13:25:02.732Z,97241.30
2018-09-05T13:27:31.340Z,97232.78
2018-09-05T13:29:59.931Z,97231.48
2018-09-05T13:32:28.484Z,97237.13
2018-09-05T13:34:57.048Z,97229.70
2018-09-05T13:37:25.647Z,97232.07
2018-09-05T13:39:54.208Z,97227.17
2018-09-05T13:42:22.779Z,97225.46
2018-09-05T13:44:51.739Z,97230.39
2018-09-05T13:47:20.357Z,97221.71
2018-09-05T13:49:48.905Z,97225.38
2018-09-05T13:52:19.350Z,97220.51
2018-09-05T13:54:47.923Z,97216.95
2018-09-05T13:57:16.495Z,97218.50
2018-09-05T13:59:45.736Z,97208.22
2018-09-05T14:02:14.287Z,97213.09
2018-09-05T14:04:42.860Z,97205.45
2018-09-05T14:07:11.457Z,97211.56
2018-09-05T14:09:40.017Z,97206.91
2018-09-05T14:12:08.593Z,97208.02
2018-09-05T14:14:37.415Z,97207.67
2018-09-05T14:17:05.976Z,97202.50
2018-09-05T14:19:34.543Z,97202.23
2018-09-05T14:22:03.750Z,97203.06
2018-09-05T14:24:32.388Z,97200.77
2018-09-05T14:27:01.096Z,97198.93
2018-09-05T14:29:30.288Z,97195.64
2018-09-05T14:32:00.329Z,97200.44
2018-09-05T14:34:29.915Z,97193.38
2018-09-05T14:36:58.863Z,97191.45
2018-09-05T14:39:27.421Z,97189.37
2018-09-05T14:41:56.106Z,97195.85
2018-09-05T14:44:24.667Z,97194.53
2018-09-05T14:46:54.457Z,97193.19
2018-09-05T14:49:24.100Z,97192.54
2018-09-05T14:51:52.659Z,97192.34
2018-09-05T14:54:21.224Z,97190.08
2018-09-05T14:56:49.832Z,97189.39
2018-09-05T14:59:21.595Z,97190.08
2018-09-05T15:01:50.487Z,97186.98
2018-09-05T15:04:19.811Z,97184.55
2018-09-05T15:06:48.443Z,97181.92
2018-09-05T15:09:17.121Z,97184.55
2018-09-05T15:11:45.671Z,97176.25
2018-09-05T15:14:14.675Z,97173.77
2018-09-05T15:16:43.783Z,97178.30
2018-09-05T15:19:12.376Z,97177.68
2018-09-05T15:21:41.189Z,97173.48
2018-09-05T15:24:10.959Z,97169.58
2018-09-05T15:26:39.725Z,97159.14
2018-09-05T15:29:08.272Z,97159.44
2018-09-05T15:31:36.880Z,97162.20
2018-09-05T15:34:05.565Z,97162.53
2018-09-05T15:36:36.054Z,97159.11
2018-09-05T15:39:06.451Z,97151.82
2018-09-05T15:41:35.102Z,97158.81
2018-09-05T15:44:03.739Z,97153.51
2018-09-05T15:46:32.304Z,97158.19
2018-09-05T15:49:00.876Z,97150.04
2018-09-05T15:51:29.484Z,97155.97
2018-09-05T15:53:58.181Z,97151.44
2018-09-05T15:56:26.863Z,97158.25
2018-09-05T15:58:55.875Z,97152.41
2018-09-05T16:01:24.431Z,97151.48
2018-09-05T16:03:55.288Z,97149.39
2018-09-05T16:06:25.004Z,97153.45
2018-09-05T16:08:54.013Z,97149.36
2018-09-05T16:11:22.724Z,97149.36
2018-09-05T16:13:52.062Z,97150.33
2018-09-05T16:16:21.016Z,97151.63
2018-09-05T16:18:49.808Z,97146.60
2018-09-05T16:21:18.975Z,97153.30
2018-09-05T16:23:47.837Z,97145.16
2018-09-05T16:26:16.703Z,97145.00
2018-09-05T16:28:45.764Z,97149.06
2018-09-05T16:31:14.631Z,97146.16
2018-09-05T16:33:43.713Z,97144.84
2018-09-05T16:36:12.934Z,97144.03
2018-09-05T16:38:41.791Z,97141.28
2018-09-05T16:41:10.755Z,97133.95
2018-09-05T16:43:39.347Z,97139.94
2018-09-05T16:46:08.504Z,97139.31
2018-09-05T16:48:37.152Z,97134.59
2018-09-05T16:51:06.655Z,97132.28
2018-09-05T16:53:35.373Z,97134.41
2018-09-05T16:56:04.683Z,97136.86
2018-09-05T16:58:33.791Z,97135.89
2018-09-05T17:01:02.934Z,97135.08
2018-09-05T17:03:31.871Z,97132.62
2018-09-05T17:06:00.449Z,97138.83
2018-09-05T17:08:29.187Z,97134.44
2018-09-05T17:10:58.295Z,97139.00
2018-09-05T17:13:27.219Z,97143.91
2018-09-05T17:15:56.093Z,97148.63
2018-09-05T17:18:25.070Z,97146.20
2018-09-05T17:20:53.675Z,97148.47
2018-09-05T17:23:22.378Z,97147.80
2018-09-05T17:25:50.908Z,97149.12
2018-09-05T17:28:19.793Z,97144.41
2018-09-05T17:30:48.391Z,97145.55
2018-09-05T17:33:17.012Z,97142.94
2018-09-05T17:35:45.923Z,97138.38
2018-09-05T17:38:14.572Z,97141.82
2018-09-05T17:40:48.964Z,97139.05
2018-09-05T17:43:17.531Z,97134.02
2018-09-05T17:45:46.376Z,97133.68
2018-09-05T17:48:15.115Z,97132.35
2018-09-05T17:50:43.676Z,97143.87
2018-09-05T17:53:12.224Z,97138.31
2018-09-05T17:55:40.848Z,97136.35
2018-09-05T17:58:09.400Z,97141.05
2018-09-05T18:00:38.061Z,97141.88
2018-09-05T18:03:06.667Z,97139.09
2018-09-05T18:05:35.215Z,97138.77
2018-09-05T18:08:03.768Z,97144.27
2018-09-05T18:10:35.879Z,97140.52
2018-09-05T18:13:04.635Z,97141.79
2018-09-05T18:15:33.187Z,97143.74
2018-09-05T18:18:01.780Z,97140.30
2018-09-05T18:20:30.328Z,97142.22
2018-09-05T18:22:58.883Z,97142.37
2018-09-05T18:25:27.535Z,97146.83
2018-09-05T18:27:56.096Z,97146.38
2018-09-05T18:30:24.635Z,97143.58
2018-09-05T18:32:53.554Z,97140.98
2018-09-05T18:35:22.119Z,97146.01
2018-09-05T18:37:50.663Z,97140.48
2018-09-05T18:40:19.363Z,97144.67
2018-09-05T18:42:47.903Z,97143.86
2018-09-05T18:45:16.455Z,97149.36
2018-09-05T18:47:45.322Z,97153.89
2018-09-05T18:50:13.875Z,97154.17
2018-09-05T18:52:42.433Z,97161.61
2018-09-05T18:55:11.229Z,97160.27
2018-09-05T18:57:39.795Z,97157.91
2018-09-05T19:00:08.401Z,97158.21
2018-09-05T19:02:37.315Z,97153.15
2018-09-05T19:05:05.938Z,97150.77
2018-09-05T19:07:34.483Z,97146.56
2018-09-05T19:10:03.063Z,97149.52
2018-09-05T19:12:31.654Z,97149.48
2018-09-05T19:15:00.219Z,97145.41
2018-09-05T19:17:28.874Z,97144.91
2018-09-05T19:19:57.441Z,97149.00
2018-09-05T19:22:26.018Z,97144.42
2018-09-05T19:24:54.655Z,97142.41
2018-09-05T19:27:23.281Z,97142.83
2018-09-05T19:29:51.824Z,97145.81
2018-09-05T19:32:20.408Z,97143.78
2018-09-05T19:34:48.979Z,97146.38
2018-09-05T19:37:17.600Z,97144.66
2018-09-05T19:39:46.307Z,97138.85
2018-09-05T19:42:14.865Z,97135.73
2018-09-05T19:44:43.435Z,97142.30
2018-09-05T19:47:12.096Z,97147.10
2018-09-05T19:49:40.636Z,97138.11
2018-09-05T19:52:09.740Z,97142.50
2018-09-05T19:54:38.403Z,97144.33
2018-09-05T19:57:06.984Z,97147.61
2018-09-05T19:59:35.537Z,97143.52
2018-09-05T20:02:04.167Z,97146.70
2018-09-05T20:04:32.898Z,97142.87
2018-09-05T20:07:01.446Z,97138.91
2018-09-05T20:09:30.020Z,97144.67
2018-09-05T20:11:58.576Z,97146.06
2018-09-05T20:14:27.249Z,97145.78
2018-09-05T20:16:56.093Z,97144.00
2018-09-05T20:19:24.619Z,97145.23
2018-09-05T20:21:53.685Z,97146.73
2018-09-05T20:24:22.439Z,97143.48
2018-09-05T20:26:51.012Z,97140.00
2018-09-05T20:29:19.571Z,97148.31
2018-09-05T20:31:48.599Z,97142.87
2018-09-05T20:34:17.158Z,97144.56
2018-09-05T20:36:45.789Z,97143.55
2018-09-05T20:39:14.557Z,97142.34
2018-09-05T20:41:43.105Z,97139.36
2018-09-05T20:44:11.767Z,97138.89
2018-09-05T20:46:40.695Z,97143.16
2018-09-05T20:49:09.255Z,97138.54
2018-09-05T20:51:37.820Z,97141.52
2018-09-05T20:54:06.784Z,97145.91
2018-09-05T20:56:35.360Z,97148.80
2018-09-05T20:59:03.935Z,97147.67
2018-09-05T21:01:32.846Z,97146.10
2018-09-05T21:04:01.404Z,97139.56
2018-09-05T21:06:30.024Z,97140.14
2018-09-05T21:08:58.687Z,97138.08
2018-09-05T21:11:27.248Z,97141.70
2018-09-05T21:13:55.799Z,97137.28
2018-09-05T21:16:24.451Z,97134.16
2018-09-05T21:18:53.011Z,97141.78
2018-09-05T21:21:21.575Z,97136.73
2018-09-05T21:23:50.183Z,97137.86
2018-09-05T21:26:18.738Z,97130.85
2018-09-05T21:28:47.299Z,97131.27
2018-09-05T21:31:15.887Z,97131.54
2018-09-05T21:33:44.439Z,97135.60
2018-09-05T21:36:13.076Z,97141.38
2018-09-05T21:38:41.943Z,97132.34
2018-09-05T21:41:10.511Z,97130.23
2018-09-05T21:43:39.074Z,97137.16
2018-09-05T21:46:07.704Z,97135.78
2018-09-05T21:48:36.303Z,97133.70
2018-09-05T21:51:04.917Z,97139.25
2018-09-05T21:53:33.588Z,97140.87
2018-09-05T21:56:02.532Z,97139.28
2018-09-05T21:58:31.080Z,97140.57
2018-09-05T22:00:59.703Z,97140.84
2018-09-05T22:03:28.261Z,97140.28
2018-09-05T22:05:56.814Z,97138.78
2018-09-05T22:08:25.631Z,97146.70
2018-09-05T22:10:54.255Z,97140.57
2018-09-05T22:13:22.967Z,97147.70
2018-09-05T22:15:51.620Z,97142.37
2018-09-05T22:18:20.287Z,97146.75
2018-09-05T22:20:48.839Z,97145.93
2018-09-05T22:23:17.445Z,97146.45
2018-09-05T22:25:46.027Z,97146.30
2018-09-05T22:28:14.594Z,97145.47
2018-09-05T22:30:43.287Z,97140.22
2018-09-05T22:33:11.945Z,97140.22
2018-09-05T22:35:40.508Z,97140.94
2018-09-05T22:38:09.099Z,97131.85
2018-09-05T22:40:42.874Z,97132.11
2018-09-05T22:43:22.583Z,97130.86
2018-09-05T22:46:02.351Z,97130.77
2018-09-05T22:48:43.225Z,97134.31
2018-09-05T22:51:56.600Z,97136.55
2018-09-05T22:55:13.455Z,97137.01
2018-09-05T23:07:45.505Z,97135.52
2018-09-05T23:10:25.287Z,97125.48
2018-09-05T23:13:05.356Z,97126.64
2018-09-05T23:17:01.796Z,97130.28
2018-09-05T23:19:43.236Z,97117.91
2018-09-05T23:22:11.947Z,97114.65
2018-09-05T23:24:40.508Z,97116.58
2018-09-05T23:27:09.104Z,97114.22
2018-09-05T23:29:37.668Z,97113.97
2018-09-05T23:32:06.344Z,97115.62
2018-09-05T23:34:35.008Z,97113.51
2018-09-05T23:37:03.577Z,97108.35
2018-09-05T23:39:32.145Z,97099.59
2018-09-05T23:42:00.869Z,97102.30
2018-09-05T23:44:29.453Z,97091.03
2018-09-05T23:46:58.266Z,97095.77
2018-09-05T23:49:27.005Z,97101.41
2018-09-05T23:51:55.596Z,97097.27
2018-09-05T23:54:24.185Z,97091.24
2018-09-05T23:56:53.113Z,97094.86
2018-09-05T23:59:21.677Z,97090.75
